createdAt,value
2023-03-06T00:00:51.008Z,11.85
2023-03-06T00:03:19.018Z,11.57
2023-03-06T00:05:46.491Z,11.98
2023-03-06T00:08:13.940Z,11.43
2023-03-06T00:10:41.507Z,11.80
2023-03-06T00:13:13.714Z,10.85
2023-03-06T00:15:41.167Z,12.63
2023-03-06T00:18:08.855Z,11.88
2023-03-06T00:20:37.248Z,12.00
2023-03-06T00:23:05.153Z,11.80
2023-03-06T00:25:32.519Z,11.18
2023-03-06T00:27:59.908Z,11.70
2023-03-06T00:30:27.350Z,11.52
2023-03-06T00:32:55.018Z,10.80
2023-03-06T00:35:23.994Z,11.23
2023-03-06T00:37:51.455Z,12.07
2023-03-06T00:40:19.731Z,12.13
2023-03-06T00:42:47.900Z,11.18
2023-03-06T00:45:15.317Z,12.35
2023-03-06T00:47:43.302Z,11.43
2023-03-06T00:50:11.278Z,13.85
2023-03-06T00:52:39.085Z,12.95
2023-03-06T00:55:07.064Z,14.00
2023-03-06T00:57:34.337Z,13.68
2023-03-06T01:00:02.099Z,14.10
2023-03-06T01:02:30.735Z,15.27
2023-03-06T01:04:58.775Z,15.10
2023-03-06T01:07:27.999Z,15.20
2023-03-06T01:09:55.251Z,14.18
2023-03-06T01:12:23.574Z,14.60
2023-03-06T01:14:51.915Z,15.80
2023-03-06T01:17:19.229Z,14.93
2023-03-06T01:19:46.534Z,15.18
2023-03-06T01:22:14.459Z,15.02
2023-03-06T01:24:41.808Z,15.75
2023-03-06T01:27:09.240Z,14.50
2023-03-06T01:29:36.711Z,15.80
2023-03-06T01:32:04.202Z,15.98
2023-03-06T01:34:31.717Z,15.30
2023-03-06T01:36:59.074Z,14.90
2023-03-06T01:39:26.500Z,16.00
2023-03-06T01:41:53.852Z,15.45
2023-03-06T01:44:21.217Z,16.05
2023-03-06T01:46:48.693Z,16.15
2023-03-06T01:49:18.988Z,14.75
2023-03-06T01:51:53.196Z,16.98
2023-03-06T01:54:34.437Z,16.70
2023-03-06T01:57:12.032Z,17.25
2023-03-06T01:59:41.012Z,16.42
2023-03-06T02:02:11.158Z,15.90
2023-03-06T02:04:40.346Z,16.95
2023-03-06T02:07:08.695Z,14.45
2023-03-06T02:09:38.009Z,16.73
2023-03-06T02:12:11.608Z,15.80
2023-03-06T02:14:40.633Z,15.02
2023-03-06T02:17:10.914Z,16.13
2023-03-06T02:19:59.162Z,15.73
2023-03-06T02:22:36.437Z,14.95
2023-03-06T02:25:29.981Z,15.82
2023-03-06T02:27:57.814Z,16.17
2023-03-06T02:30:28.351Z,16.20
2023-03-06T02:32:56.060Z,16.40
2023-03-06T02:35:28.819Z,16.85
2023-03-06T02:38:00.100Z,15.57
2023-03-06T02:40:27.971Z,17.45
2023-03-06T02:42:57.577Z,17.13
2023-03-06T02:45:35.947Z,15.02
2023-03-06T02:48:04.190Z,15.07
2023-03-06T02:50:32.821Z,14.80
2023-03-06T02:53:01.820Z,14.50
2023-03-06T02:55:31.442Z,16.08
2023-03-06T02:57:59.255Z,16.40
2023-03-06T03:00:27.476Z,17.67
2023-03-06T03:02:55.016Z,16.95
2023-03-06T03:05:22.857Z,16.05
2023-03-06T03:07:57.792Z,17.35
2023-03-06T03:10:25.671Z,15.75
2023-03-06T03:12:53.074Z,17.98
2023-03-06T03:15:21.201Z,16.70
2023-03-06T03:17:48.622Z,21.48
2023-03-06T03:20:21.677Z,22.73
2023-03-06T03:22:56.450Z,22.80
2023-03-06T03:25:25.696Z,23.80
2023-03-06T03:27:56.036Z,23.25
2023-03-06T03:30:24.000Z,24.73
2023-03-06T03:32:51.422Z,23.67
2023-03-06T03:35:19.882Z,25.30
2023-03-06T03:37:47.989Z,24.00
2023-03-06T03:40:15.541Z,21.80
2023-03-06T03:42:43.526Z,22.38
2023-03-06T03:45:11.804Z,24.05
2023-03-06T03:47:40.848Z,22.48
2023-03-06T03:50:09.411Z,23.02
2023-03-06T03:52:37.962Z,23.70
2023-03-06T03:55:06.158Z,24.05
2023-03-06T03:57:33.706Z,26.13
2023-03-06T04:00:01.783Z,27.27
2023-03-06T04:02:47.414Z,24.27
2023-03-06T04:05:25.809Z,23.55
2023-03-06T04:07:54.091Z,22.23
2023-03-06T04:10:21.915Z,22.10
2023-03-06T04:12:50.192Z,22.42
2023-03-06T04:15:18.058Z,20.80
2023-03-06T04:17:47.339Z,18.42
2023-03-06T04:20:19.462Z,19.45
2023-03-06T04:22:48.003Z,18.70
2023-03-06T04:25:16.852Z,18.70
2023-03-06T04:27:44.546Z,19.15
2023-03-06T04:30:12.393Z,17.40
2023-03-06T04:32:41.819Z,16.77
2023-03-06T04:35:10.377Z,18.65
2023-03-06T04:37:46.015Z,16.73
2023-03-06T04:40:23.771Z,17.60
2023-03-06T04:42:51.282Z,17.05
2023-03-06T04:45:18.971Z,16.52
2023-03-06T04:47:47.218Z,15.60
2023-03-06T04:50:20.000Z,16.30
2023-03-06T04:52:47.905Z,16.20
2023-03-06T04:55:17.354Z,16.60
2023-03-06T04:57:48.004Z,15.90
2023-03-06T05:00:25.254Z,16.33
2023-03-06T05:03:05.759Z,16.48
2023-03-06T05:05:37.964Z,16.13
2023-03-06T05:08:07.076Z,17.92
2023-03-06T05:10:36.081Z,16.63
2023-03-06T05:13:04.241Z,16.20
2023-03-06T05:15:32.531Z,16.58
2023-03-06T05:19:18.415Z,16.55
2023-03-06T05:21:58.119Z,15.63
2023-03-06T05:24:33.816Z,15.45
2023-03-06T05:27:13.071Z,14.27
2023-03-06T05:29:42.597Z,15.32
2023-03-06T05:32:10.906Z,15.27
2023-03-06T05:34:40.886Z,13.45
2023-03-06T05:37:11.377Z,14.90
2023-03-06T05:39:41.788Z,14.35
2023-03-06T05:42:10.630Z,14.98
2023-03-06T05:44:39.823Z,14.32
2023-03-06T05:47:30.550Z,14.13
2023-03-06T05:50:20.513Z,14.65
2023-03-06T05:53:09.535Z,13.93
2023-03-06T05:55:43.991Z,14.55
2023-03-06T05:58:15.173Z,13.23
2023-03-06T06:01:14.554Z,13.88
2023-03-06T06:03:45.738Z,15.43
2023-03-06T06:07:11.287Z,15.35
2023-03-06T06:09:54.691Z,14.65
2023-03-06T06:12:26.883Z,15.27
2023-03-06T06:14:56.014Z,15.88
2023-03-06T06:17:24.082Z,16.23
2023-03-06T06:19:57.449Z,18.13
2023-03-06T06:22:25.899Z,17.65
2023-03-06T06:24:57.390Z,18.83
2023-03-06T06:27:26.073Z,18.00
2023-03-06T06:29:57.855Z,17.13
2023-03-06T06:32:28.315Z,16.30
2023-03-06T06:35:14.324Z,18.13
2023-03-06T06:37:45.993Z,16.67
2023-03-06T06:40:18.096Z,18.00
2023-03-06T06:42:47.586Z,17.65
2023-03-06T06:45:16.867Z,17.77
2023-03-06T06:47:46.785Z,17.05
2023-03-06T06:50:16.041Z,16.73
2023-03-06T06:56:14.269Z,17.73
2023-03-06T06:58:51.409Z,16.95
2023-03-06T07:01:36.353Z,17.45
2023-03-06T07:04:07.323Z,17.75
2023-03-06T07:06:43.334Z,18.70
2023-03-06T07:09:15.929Z,18.48
2023-03-06T07:11:43.752Z,18.70
2023-03-06T07:14:12.595Z,18.80
2023-03-06T07:16:42.214Z,20.55
2023-03-06T07:19:09.922Z,21.85
2023-03-06T07:21:37.768Z,23.45
2023-03-06T07:24:06.686Z,19.90
2023-03-06T07:26:37.809Z,20.92
2023-03-06T07:29:07.469Z,20.42
2023-03-06T07:31:37.621Z,18.17
2023-03-06T07:34:14.506Z,18.65
2023-03-06T07:36:51.630Z,17.25
2023-03-06T07:39:55.479Z,18.67
2023-03-06T07:42:32.996Z,17.20
2023-03-06T07:45:05.599Z,17.88
2023-03-06T07:47:41.828Z,17.67
2023-03-06T07:50:12.153Z,17.75
2023-03-06T07:52:46.715Z,18.83
2023-03-06T07:55:22.167Z,20.60
2023-03-06T07:57:55.704Z,19.83
2023-03-06T08:00:32.272Z,20.67
2023-03-06T08:03:08.947Z,20.30
2023-03-06T08:05:45.176Z,19.63
2023-03-06T08:08:20.471Z,20.70
2023-03-06T08:10:50.644Z,21.23
2023-03-06T08:13:18.993Z,20.23
2023-03-06T08:15:50.015Z,20.20
2023-03-06T08:18:23.402Z,19.48
2023-03-06T08:21:04.002Z,20.02
2023-03-06T08:23:35.955Z,22.52
2023-03-06T08:26:12.303Z,23.30
2023-03-06T08:28:43.464Z,17.85
2023-03-06T08:31:24.163Z,17.13
2023-03-06T08:33:52.974Z,15.70
2023-03-06T08:36:26.002Z,15.95
2023-03-06T08:39:50.642Z,17.40
2023-03-06T08:42:46.165Z,16.00
2023-03-06T08:45:46.958Z,16.08
2023-03-06T08:48:28.571Z,14.93
2023-03-06T08:50:57.141Z,16.38
2023-03-06T08:53:42.243Z,15.40
2023-03-06T08:56:25.955Z,15.25
2023-03-06T08:59:03.712Z,15.50
2023-03-06T09:01:35.477Z,14.55
2023-03-06T09:04:07.381Z,14.98
2023-03-06T09:06:38.899Z,14.85
2023-03-06T09:09:08.183Z,14.93
2023-03-06T09:11:39.837Z,14.65
2023-03-06T09:14:08.463Z,15.57
2023-03-06T09:16:39.219Z,14.75
2023-03-06T09:19:08.601Z,14.20
2023-03-06T09:21:36.717Z,14.55
2023-03-06T09:24:05.228Z,14.45
2023-03-06T09:26:45.373Z,14.63
2023-03-06T09:32:09.625Z,11.95
2023-03-06T09:34:39.826Z,13.50
2023-03-06T09:37:08.858Z,13.18
2023-03-06T09:39:36.886Z,12.73
2023-03-06T09:42:09.674Z,12.75
2023-03-06T09:44:41.746Z,13.63
2023-03-06T09:47:38.408Z,12.95
2023-03-06T09:50:20.389Z,12.82
2023-03-06T09:53:17.771Z,13.25
2023-03-06T09:55:57.501Z,13.02
2023-03-06T09:58:27.882Z,12.13
2023-03-06T10:01:20.039Z,10.77
2023-03-06T10:03:54.130Z,12.18
2023-03-06T10:06:28.698Z,12.68
2023-03-06T10:09:42.018Z,14.50
2023-03-06T10:12:29.347Z,13.80
2023-03-06T10:15:15.084Z,13.73
2023-03-06T10:17:45.202Z,10.57
2023-03-06T10:20:24.255Z,14.02
2023-03-06T10:23:25.409Z,12.50
2023-03-06T10:26:08.314Z,12.27
2023-03-06T10:28:45.334Z,13.07
2023-03-06T10:31:26.787Z,13.30
2023-03-06T10:34:25.961Z,12.32
2023-03-06T10:36:53.936Z,9.88
2023-03-06T10:39:23.596Z,13.90
2023-03-06T10:41:51.539Z,13.15
2023-03-06T10:44:22.176Z,14.93
2023-03-06T10:46:55.144Z,18.48
2023-03-06T10:49:39.362Z,18.85
2023-03-06T10:52:20.832Z,14.43
2023-03-06T10:54:51.489Z,13.10
2023-03-06T10:57:34.780Z,11.82
2023-03-06T11:00:23.914Z,12.60
2023-03-06T11:03:14.581Z,11.85
2023-03-06T11:05:59.774Z,12.90
2023-03-06T11:08:29.243Z,12.10
2023-03-06T11:11:06.399Z,10.38
2023-03-06T11:13:40.412Z,10.45
2023-03-06T11:16:37.931Z,11.07
2023-03-06T11:19:18.523Z,9.73
2023-03-06T11:22:19.024Z,9.85
2023-03-06T11:24:54.762Z,9.48
2023-03-06T11:27:37.042Z,11.68
2023-03-06T11:30:29.407Z,10.23
2023-03-06T11:33:07.084Z,9.63
2023-03-06T11:35:53.574Z,8.85
2023-03-06T11:38:28.120Z,9.07
2023-03-06T11:41:01.790Z,9.40
2023-03-06T11:43:42.392Z,8.00
2023-03-06T11:46:20.449Z,9.00
2023-03-06T11:49:24.020Z,8.98
2023-03-06T11:52:01.425Z,9.07
2023-03-06T11:54:29.606Z,8.95
2023-03-06T11:59:51.730Z,8.32
2023-03-06T12:02:57.041Z,5.82
2023-03-06T12:06:06.647Z,8.50
2023-03-06T12:08:52.446Z,6.40
2023-03-06T12:11:38.868Z,5.95
2023-03-06T12:14:31.929Z,5.90
2023-03-06T12:17:21.963Z,7.75
2023-03-06T12:20:04.587Z,6.20
2023-03-06T12:22:53.278Z,4.88
2023-03-06T12:25:34.268Z,6.35
2023-03-06T12:28:41.419Z,5.40
2023-03-06T12:31:20.701Z,5.43
2023-03-06T12:34:25.910Z,5.10
2023-03-06T12:37:02.686Z,5.47
2023-03-06T12:40:10.239Z,4.45
2023-03-06T12:43:33.104Z,4.68
2023-03-06T12:46:16.821Z,4.55
2023-03-06T12:48:52.243Z,4.32
2023-03-06T12:51:21.656Z,4.03
2023-03-06T12:53:51.343Z,3.25
2023-03-06T12:56:21.387Z,3.20
2023-03-06T12:58:57.752Z,3.75
2023-03-06T13:01:41.916Z,3.70
2023-03-06T13:04:23.065Z,3.55
2023-03-06T13:10:06.976Z,5.15
2023-03-06T13:12:57.683Z,4.47
2023-03-06T13:15:46.049Z,2.92
2023-03-06T13:18:23.210Z,2.40
2023-03-06T13:20:58.079Z,2.20
2023-03-06T13:23:37.278Z,2.55
2023-03-06T13:26:28.713Z,2.08
2023-03-06T13:28:58.639Z,2.47
2023-03-06T13:31:34.259Z,2.00
2023-03-06T13:34:04.272Z,2.50
2023-03-06T13:36:39.096Z,2.33
2023-03-06T13:39:12.122Z,2.15
2023-03-06T13:41:57.872Z,2.28
2023-03-06T13:44:28.979Z,2.38
2023-03-06T13:47:00.158Z,2.70
2023-03-06T13:49:30.346Z,2.15
2023-03-06T13:52:03.643Z,2.45
2023-03-06T13:54:50.728Z,2.28
2023-03-06T13:57:52.309Z,2.83
2023-03-06T14:00:46.128Z,3.05
2023-03-06T14:03:29.153Z,2.42
2023-03-06T14:05:57.028Z,2.40
2023-03-06T14:08:28.198Z,3.10
2023-03-06T14:11:15.812Z,2.60
2023-03-06T14:13:50.003Z,2.58
2023-03-06T14:16:25.872Z,2.47
2023-03-06T14:18:56.543Z,2.45
2023-03-06T14:21:31.246Z,2.85
2023-03-06T14:24:01.159Z,2.45
2023-03-06T14:26:34.288Z,2.50
2023-03-06T14:29:03.360Z,2.10
2023-03-06T14:31:37.914Z,2.10
2023-03-06T14:34:15.871Z,1.77
2023-03-06T14:36:46.303Z,2.30
2023-03-06T14:39:20.713Z,1.83
2023-03-06T14:41:48.270Z,1.65
2023-03-06T14:44:22.346Z,1.80
2023-03-06T14:46:52.476Z,2.00
2023-03-06T14:49:22.137Z,1.67
2023-03-06T14:52:00.958Z,2.20
2023-03-06T14:54:34.725Z,1.75
2023-03-06T14:57:08.771Z,1.80
2023-03-06T14:59:45.363Z,1.67
2023-03-06T15:02:21.602Z,1.65
2023-03-06T15:04:54.029Z,2.03
2023-03-06T15:07:32.905Z,1.80
2023-03-06T15:10:01.508Z,1.80
2023-03-06T15:12:30.209Z,1.65
2023-03-06T15:15:04.399Z,1.73
2023-03-06T15:17:40.216Z,1.55
2023-03-06T15:20:28.861Z,1.33
2023-03-06T15:22:56.517Z,1.63
2023-03-06T15:25:30.551Z,1.52
2023-03-06T15:27:57.973Z,1.50
2023-03-06T15:30:27.706Z,1.60
2023-03-06T15:33:19.991Z,1.70
2023-03-06T15:35:58.306Z,1.60
2023-03-06T15:38:42.166Z,1.80
2023-03-06T15:41:21.833Z,1.42
2023-03-06T15:43:49.871Z,1.23
2023-03-06T15:46:17.461Z,1.50
2023-03-06T15:49:03.282Z,1.42
2023-03-06T15:51:32.398Z,1.52
2023-03-06T15:54:11.392Z,1.40
2023-03-06T15:56:42.115Z,1.92
2023-03-06T15:59:19.689Z,1.60
2023-03-06T16:01:47.672Z,1.50
2023-03-06T16:04:17.420Z,1.60
2023-03-06T16:06:46.097Z,1.70
2023-03-06T16:09:14.635Z,1.35
2023-03-06T16:14:24.052Z,1.55
2023-03-06T16:16:54.402Z,1.50
2023-03-06T16:19:27.588Z,1.20
2023-03-06T16:21:56.848Z,1.10
2023-03-06T16:24:26.489Z,1.17
2023-03-06T16:26:55.277Z,1.40
2023-03-06T16:29:26.338Z,1.42
2023-03-06T16:31:55.593Z,1.27
2023-03-06T16:34:23.913Z,1.70
2023-03-06T16:36:51.828Z,1.52
2023-03-06T16:39:23.057Z,1.30
2023-03-06T16:41:50.906Z,1.40
2023-03-06T16:44:18.823Z,1.40
2023-03-06T16:46:48.411Z,1.45
2023-03-06T16:49:21.989Z,1.20
2023-03-06T16:51:50.196Z,1.33
2023-03-06T16:54:18.235Z,1.60
2023-03-06T16:56:46.012Z,1.30
2023-03-06T16:59:13.734Z,1.50
2023-03-06T17:01:45.003Z,1.70
2023-03-06T17:04:13.067Z,1.60
2023-03-06T17:06:42.072Z,1.70
2023-03-06T17:09:11.268Z,1.70
2023-03-06T17:11:39.068Z,1.60
2023-03-06T17:14:07.204Z,1.60
2023-03-06T17:16:36.901Z,1.55
2023-03-06T17:19:04.623Z,1.80
2023-03-06T17:21:32.139Z,1.52
2023-03-06T17:24:01.997Z,1.77
2023-03-06T17:26:29.813Z,1.83
2023-03-06T17:28:57.501Z,2.40
2023-03-06T17:31:29.062Z,3.00
2023-03-06T17:34:00.833Z,3.70
2023-03-06T17:36:29.639Z,3.55
2023-03-06T17:39:02.270Z,3.72
2023-03-06T17:41:30.249Z,4.07
2023-03-06T17:43:58.604Z,5.15
2023-03-06T17:46:26.543Z,7.25
2023-03-06T17:48:55.164Z,10.02
2023-03-06T17:51:22.709Z,10.95
2023-03-06T17:53:52.470Z,13.60
2023-03-06T17:56:20.146Z,15.63
2023-03-06T17:58:47.997Z,20.13
2023-03-06T18:01:19.116Z,19.05
2023-03-06T18:03:49.086Z,14.77
2023-03-06T18:06:18.108Z,12.07
2023-03-06T18:08:46.373Z,7.35
2023-03-06T18:11:14.650Z,6.60
2023-03-06T18:13:44.375Z,2.97
2023-03-06T18:16:14.360Z,2.85
2023-03-06T18:18:41.943Z,1.95
2023-03-06T18:21:12.004Z,2.00
2023-03-06T18:23:40.698Z,1.73
2023-03-06T18:26:12.003Z,1.70
2023-03-06T18:28:42.694Z,1.88
2023-03-06T18:31:17.217Z,2.05
2023-03-06T18:33:45.714Z,1.58
2023-03-06T18:36:13.407Z,1.83
2023-03-06T18:38:43.231Z,1.83
2023-03-06T18:41:11.959Z,1.80
2023-03-06T18:43:40.105Z,1.52
2023-03-06T18:46:08.058Z,1.52
2023-03-06T18:48:36.314Z,1.40
2023-03-06T18:51:09.465Z,1.75
2023-03-06T18:53:37.291Z,1.48
2023-03-06T18:56:08.382Z,1.40
2023-03-06T18:58:35.801Z,1.60
2023-03-06T19:01:09.204Z,1.60
2023-03-06T19:03:36.827Z,1.80
2023-03-06T19:06:09.359Z,1.40
2023-03-06T19:08:38.809Z,1.50
2023-03-06T19:11:12.634Z,1.60
2023-03-06T19:13:40.134Z,1.38
2023-03-06T19:16:08.146Z,1.65
2023-03-06T19:18:36.048Z,1.85
2023-03-06T19:21:20.852Z,1.58
2023-03-06T19:23:48.893Z,1.70
2023-03-06T19:26:18.911Z,1.42
2023-03-06T19:28:47.063Z,1.50
2023-03-06T19:31:20.809Z,1.98
2023-03-06T19:33:49.697Z,1.58
2023-03-06T19:36:18.729Z,1.52
2023-03-06T19:38:50.582Z,1.60
2023-03-06T19:41:18.153Z,1.23
2023-03-06T19:43:52.446Z,1.55
2023-03-06T19:46:21.293Z,1.23
2023-03-06T19:48:49.137Z,1.38
2023-03-06T19:51:16.704Z,1.13
2023-03-06T19:53:44.364Z,1.13
2023-03-06T19:56:21.732Z,1.35
2023-03-06T19:58:49.301Z,1.40
2023-03-06T20:01:19.638Z,1.27
2023-03-06T20:03:47.469Z,1.10
2023-03-06T20:06:18.788Z,1.42
2023-03-06T20:08:47.701Z,1.40
2023-03-06T20:11:19.859Z,1.38
2023-03-06T20:13:47.977Z,1.70
2023-03-06T20:16:17.160Z,2.00
2023-03-06T20:18:45.888Z,1.85
2023-03-06T20:21:13.916Z,1.90
2023-03-06T20:23:41.975Z,2.00
2023-03-06T20:26:12.269Z,1.90
2023-03-06T20:28:41.679Z,1.95
2023-03-06T20:31:18.894Z,2.05
2023-03-06T20:33:48.790Z,1.65
2023-03-06T20:36:19.687Z,1.95
2023-03-06T20:38:47.720Z,1.88
2023-03-06T20:41:23.122Z,1.40
2023-03-06T20:43:50.901Z,1.50
2023-03-06T20:46:19.870Z,1.73
2023-03-06T20:48:52.697Z,1.60
2023-03-06T20:51:32.589Z,1.63
2023-03-06T20:54:01.811Z,1.48
2023-03-06T20:56:32.415Z,1.42
2023-03-06T20:59:00.017Z,1.80
2023-03-06T21:01:29.825Z,1.23
2023-03-06T21:03:58.385Z,1.40
2023-03-06T21:06:28.464Z,1.67
2023-03-06T21:09:00.344Z,1.63
2023-03-06T21:11:28.422Z,1.65
2023-03-06T21:13:57.054Z,1.52
2023-03-06T21:16:26.595Z,1.90
2023-03-06T21:18:55.960Z,1.55
2023-03-06T21:21:25.924Z,1.50
2023-03-06T21:23:53.709Z,1.58
2023-03-06T21:26:23.715Z,1.90
2023-03-06T21:28:51.913Z,2.08
2023-03-06T21:31:21.385Z,1.60
2023-03-06T21:33:50.249Z,1.63
2023-03-06T21:36:19.415Z,1.60
2023-03-06T21:38:48.400Z,2.10
2023-03-06T21:41:20.982Z,1.75
2023-03-06T21:43:48.484Z,2.30
2023-03-06T21:46:16.422Z,1.67
2023-03-06T21:48:44.118Z,1.73
2023-03-06T21:51:16.065Z,2.00
2023-03-06T21:53:44.367Z,1.65
2023-03-06T21:56:13.391Z,1.70
2023-03-06T21:58:41.158Z,1.95
2023-03-06T22:01:13.658Z,2.08
2023-03-06T22:03:41.140Z,1.77
2023-03-06T22:06:17.972Z,1.63
2023-03-06T22:08:46.353Z,1.75
2023-03-06T22:11:16.133Z,2.05
2023-03-06T22:13:44.476Z,1.92
2023-03-06T22:16:12.749Z,2.05
2023-03-06T22:18:44.015Z,1.80
2023-03-06T22:21:13.702Z,1.73
2023-03-06T22:23:41.656Z,1.88
2023-03-06T22:26:12.959Z,2.00
2023-03-06T22:28:40.883Z,1.95
2023-03-06T22:31:16.997Z,2.00
2023-03-06T22:33:45.258Z,2.17
2023-03-06T22:36:15.338Z,2.10
2023-03-06T22:38:46.989Z,1.95
2023-03-06T22:41:17.066Z,2.08
2023-03-06T22:43:44.713Z,2.10
2023-03-06T22:46:14.757Z,1.75
2023-03-06T22:48:42.780Z,1.92
2023-03-06T22:51:16.521Z,2.13
2023-03-06T22:53:44.781Z,2.25
2023-03-06T22:56:14.941Z,1.98
2023-03-06T22:58:45.063Z,2.22
2023-03-06T23:01:19.017Z,1.98
2023-03-06T23:03:49.253Z,2.40
2023-03-06T23:06:20.207Z,2.10
2023-03-06T23:08:54.177Z,1.83
2023-03-06T23:11:22.773Z,1.92
2023-03-06T23:14:12.355Z,1.80
2023-03-06T23:16:58.472Z,2.13
2023-03-06T23:19:44.446Z,2.00
2023-03-06T23:22:31.354Z,1.90
2023-03-06T23:25:17.300Z,1.65
2023-03-06T23:27:44.962Z,1.70
2023-03-06T23:30:13.144Z,2.13
2023-03-06T23:32:40.801Z,1.63
2023-03-06T23:35:08.673Z,1.55
2023-03-06T23:37:36.333Z,1.63
2023-03-06T23:40:05.413Z,1.48
2023-03-06T23:42:33.136Z,1.60
2023-03-06T23:45:00.839Z,1.50
2023-03-06T23:47:32.391Z,1.60
2023-03-06T23:50:00.155Z,1.90
2023-03-06T23:52:27.800Z,2.38
2023-03-06T23:54:55.566Z,2.70
2023-03-06T23:57:23.134Z,2.33
2023-03-06T23:59:50.843Z,2.80
